createdAt,value
2023-03-26T00:02:22.087Z,51.20
2023-03-26T00:04:48.374Z,52.03
2023-03-26T00:07:14.640Z,51.96
2023-03-26T00:09:40.911Z,52.31
2023-03-26T00:12:07.458Z,52.46
2023-03-26T00:14:33.763Z,52.21
2023-03-26T00:17:00.058Z,52.30
2023-03-26T00:19:26.344Z,52.98
2023-03-26T00:21:52.629Z,53.22
2023-03-26T00:24:18.885Z,53.14
2023-03-26T00:26:45.158Z,52.92
2023-03-26T00:29:11.460Z,53.49
2023-03-26T00:31:37.714Z,53.59
2023-03-26T00:34:04.025Z,53.85
2023-03-26T00:36:30.336Z,53.32
2023-03-26T00:38:56.611Z,53.22
2023-03-26T00:41:22.916Z,54.09
2023-03-26T00:43:49.298Z,54.10
2023-03-26T00:46:15.610Z,54.22
2023-03-26T00:48:45.490Z,54.25
2023-03-26T00:51:12.197Z,54.16
2023-03-26T00:53:38.446Z,54.19
2023-03-26T00:56:04.703Z,54.37
2023-03-26T00:58:31.017Z,52.42
2023-03-26T01:00:57.284Z,53.36
2023-03-26T01:03:27.514Z,53.15
2023-03-26T01:05:54.707Z,52.83
2023-03-26T01:08:21.097Z,53.43
2023-03-26T01:10:47.349Z,54.00
2023-03-26T01:13:13.634Z,54.47
2023-03-26T01:15:39.915Z,54.52
2023-03-26T01:18:06.233Z,54.57
2023-03-26T01:20:32.501Z,53.94
2023-03-26T01:22:58.763Z,54.09
2023-03-26T01:25:25.057Z,54.28
2023-03-26T01:27:51.324Z,54.10
2023-03-26T01:30:17.610Z,53.84
2023-03-26T01:32:44.146Z,53.07
2023-03-26T01:35:10.627Z,53.42
2023-03-26T01:37:36.903Z,53.53
2023-03-26T01:40:03.177Z,53.48
2023-03-26T01:42:29.440Z,53.20
2023-03-26T01:44:55.712Z,53.37
2023-03-26T01:47:22.013Z,53.76
2023-03-26T01:49:48.272Z,53.88
2023-03-26T01:52:14.546Z,53.39
2023-03-26T01:54:40.813Z,54.02
2023-03-26T01:57:07.139Z,53.45
2023-03-26T01:59:33.464Z,54.10
2023-03-26T02:01:59.786Z,53.48
2023-03-26T02:04:26.162Z,53.00
2023-03-26T02:06:52.411Z,51.97
2023-03-26T02:09:18.690Z,52.18
2023-03-26T02:11:44.961Z,51.96
2023-03-26T02:14:11.238Z,51.69
2023-03-26T02:16:37.550Z,51.63
2023-03-26T02:19:03.839Z,51.69
2023-03-26T02:21:30.115Z,50.81
2023-03-26T02:23:56.399Z,50.98
2023-03-26T02:26:22.658Z,51.50
2023-03-26T02:28:48.909Z,51.90
2023-03-26T02:31:15.213Z,51.75
2023-03-26T02:33:41.522Z,51.62
2023-03-26T02:36:07.920Z,51.74
2023-03-26T02:38:34.282Z,52.27
2023-03-26T02:41:00.537Z,51.87
2023-03-26T02:43:26.809Z,52.17
2023-03-26T02:45:53.356Z,52.49
2023-03-26T02:48:19.949Z,52.75
2023-03-26T02:50:46.229Z,52.74
2023-03-26T02:53:12.489Z,53.76
2023-03-26T02:55:38.749Z,52.94
2023-03-26T02:58:05.035Z,52.70
2023-03-26T03:00:31.305Z,52.92
2023-03-26T03:02:57.622Z,52.30
2023-03-26T03:05:23.903Z,51.90
2023-03-26T03:07:50.162Z,52.11
2023-03-26T03:10:16.435Z,51.83
2023-03-26T03:12:42.708Z,52.04
2023-03-26T03:15:08.972Z,52.10
2023-03-26T03:17:35.274Z,51.91
2023-03-26T03:20:01.557Z,52.42
2023-03-26T03:22:27.833Z,52.55
2023-03-26T03:24:54.083Z,53.05
2023-03-26T03:27:20.376Z,52.98
2023-03-26T03:29:46.623Z,53.26
2023-03-26T03:32:12.899Z,53.33
2023-03-26T03:34:39.160Z,53.62
2023-03-26T03:37:05.436Z,53.57
2023-03-26T03:39:31.685Z,52.94
2023-03-26T03:41:57.957Z,52.91
2023-03-26T03:44:24.217Z,52.67
2023-03-26T03:46:50.481Z,52.35
2023-03-26T03:49:16.761Z,52.34
2023-03-26T03:51:43.004Z,52.41
2023-03-26T03:54:09.254Z,52.51
2023-03-26T03:56:35.549Z,52.34
2023-03-26T03:59:01.809Z,53.05
2023-03-26T04:01:28.071Z,52.36
2023-03-26T04:03:54.410Z,52.70
2023-03-26T04:06:20.734Z,52.71
2023-03-26T04:08:47.030Z,53.03
2023-03-26T04:11:13.293Z,52.62
2023-03-26T04:13:39.582Z,52.39
2023-03-26T04:16:05.865Z,52.88
2023-03-26T04:18:32.147Z,52.89
2023-03-26T04:20:58.422Z,52.71
2023-03-26T04:23:24.684Z,52.93
2023-03-26T04:25:50.937Z,53.10
2023-03-26T04:28:17.185Z,52.85
2023-03-26T04:30:43.462Z,53.19
2023-03-26T04:33:09.732Z,53.56
2023-03-26T04:35:36.009Z,53.79
2023-03-26T04:38:02.276Z,54.48
2023-03-26T04:40:28.575Z,55.16
2023-03-26T04:42:54.860Z,55.15
2023-03-26T04:45:21.104Z,54.84
2023-03-26T04:47:47.439Z,55.81
2023-03-26T04:50:13.787Z,56.07
2023-03-26T04:52:40.059Z,55.66
2023-03-26T04:55:06.430Z,56.14
2023-03-26T04:57:32.700Z,56.02
2023-03-26T04:59:58.943Z,56.36
2023-03-26T05:02:25.235Z,56.24
2023-03-26T05:04:51.503Z,56.63
2023-03-26T05:07:17.757Z,56.21
2023-03-26T05:09:44.039Z,57.00
2023-03-26T05:12:10.290Z,57.44
2023-03-26T05:14:36.541Z,57.77
2023-03-26T05:17:02.822Z,58.98
2023-03-26T05:19:29.102Z,58.79
2023-03-26T05:21:55.362Z,59.55
2023-03-26T05:24:21.756Z,59.51
2023-03-26T05:26:48.017Z,60.39
2023-03-26T05:29:14.261Z,59.74
2023-03-26T05:31:40.526Z,59.71
2023-03-26T05:34:06.784Z,59.62
2023-03-26T05:36:33.079Z,59.35
2023-03-26T05:38:59.331Z,59.89
2023-03-26T05:41:25.633Z,59.25
2023-03-26T05:43:51.904Z,59.41
2023-03-26T05:46:18.257Z,59.46
2023-03-26T05:48:44.571Z,58.81
2023-03-26T05:51:10.868Z,59.18
2023-03-26T05:53:37.144Z,58.85
2023-03-26T05:56:03.397Z,58.48
2023-03-26T05:58:29.633Z,58.11
2023-03-26T06:00:56.049Z,58.28
2023-03-26T06:03:22.653Z,58.34
2023-03-26T06:05:49.296Z,58.44
2023-03-26T06:08:15.543Z,58.69
2023-03-26T06:10:41.796Z,59.57
2023-03-26T06:13:08.068Z,59.49
2023-03-26T06:15:34.355Z,59.51
2023-03-26T06:18:00.685Z,59.72
2023-03-26T06:20:27.029Z,59.60
2023-03-26T06:22:53.369Z,59.74
2023-03-26T06:25:19.641Z,60.01
2023-03-26T06:27:45.885Z,60.25
2023-03-26T06:30:12.134Z,60.68
2023-03-26T06:32:38.411Z,60.64
2023-03-26T06:35:04.698Z,60.97
2023-03-26T06:37:30.981Z,60.80
2023-03-26T06:39:57.278Z,60.77
2023-03-26T06:43:06.830Z,60.57
2023-03-26T06:45:09.760Z,61.07
2023-03-26T06:47:36.051Z,60.67
2023-03-26T06:50:02.350Z,61.01
2023-03-26T06:52:28.648Z,60.64
2023-03-26T06:54:55.004Z,60.31
2023-03-26T06:57:21.301Z,61.76
2023-03-26T06:59:47.599Z,60.83
2023-03-26T07:02:13.860Z,60.35
2023-03-26T07:04:40.114Z,60.09
2023-03-26T07:07:06.409Z,60.94
2023-03-26T07:09:32.697Z,60.85
2023-03-26T07:11:59.018Z,60.13
2023-03-26T07:14:25.316Z,61.03
2023-03-26T07:16:51.648Z,60.84
2023-03-26T07:19:17.950Z,60.83
2023-03-26T07:21:44.219Z,61.55
2023-03-26T07:24:10.534Z,61.54
2023-03-26T07:26:36.853Z,61.43
2023-03-26T07:29:04.877Z,61.24
2023-03-26T07:31:31.653Z,61.24
2023-03-26T07:33:57.947Z,61.83
2023-03-26T07:36:24.218Z,61.83
2023-03-26T07:38:50.493Z,61.28
2023-03-26T07:41:16.770Z,61.61
2023-03-26T07:43:43.017Z,62.42
2023-03-26T07:46:09.342Z,62.93
2023-03-26T07:48:35.677Z,62.77
2023-03-26T07:51:01.949Z,63.21
2023-03-26T07:53:28.211Z,62.73
2023-03-26T07:55:54.489Z,63.22
2023-03-26T07:58:20.777Z,63.30
2023-03-26T08:00:47.101Z,63.06
2023-03-26T08:03:13.565Z,62.55
2023-03-26T08:05:39.937Z,63.04
2023-03-26T08:08:06.204Z,61.87
2023-03-26T08:10:32.474Z,61.92
2023-03-26T08:12:58.715Z,62.18
2023-03-26T08:15:25.018Z,62.69
2023-03-26T08:17:51.301Z,64.26
2023-03-26T08:20:17.610Z,64.58
2023-03-26T08:22:43.853Z,63.23
2023-03-26T08:25:10.108Z,62.65
2023-03-26T08:27:36.397Z,62.99
2023-03-26T08:30:02.686Z,62.61
2023-03-26T08:32:29.148Z,62.82
2023-03-26T08:34:55.470Z,62.90
2023-03-26T08:37:21.773Z,62.58
2023-03-26T08:39:48.020Z,62.66
2023-03-26T08:42:14.277Z,62.59
2023-03-26T08:44:40.659Z,62.28
2023-03-26T08:47:06.987Z,62.73
2023-03-26T08:49:33.257Z,62.98
2023-03-26T08:51:59.535Z,62.70
2023-03-26T08:54:25.798Z,62.91
2023-03-26T08:56:52.082Z,63.19
2023-03-26T08:59:18.358Z,63.05
2023-03-26T09:01:44.682Z,63.46
2023-03-26T09:04:11.030Z,64.45
2023-03-26T09:06:37.422Z,64.89
2023-03-26T09:09:03.698Z,64.25
2023-03-26T09:11:29.960Z,64.19
2023-03-26T09:13:56.238Z,63.24
2023-03-26T09:16:22.554Z,63.82
2023-03-26T09:18:48.886Z,63.85
2023-03-26T09:21:15.139Z,63.90
2023-03-26T09:23:41.429Z,63.98
2023-03-26T09:26:07.673Z,64.49
2023-03-26T09:28:33.940Z,64.35
2023-03-26T09:31:00.220Z,65.04
2023-03-26T09:33:26.486Z,65.41
2023-03-26T09:35:53.099Z,64.96
2023-03-26T09:38:19.479Z,65.36
2023-03-26T09:40:45.748Z,65.10
2023-03-26T09:43:12.017Z,64.91
2023-03-26T09:45:38.344Z,64.46
2023-03-26T09:48:04.656Z,64.78
2023-03-26T09:50:31.019Z,64.99
2023-03-26T09:52:57.390Z,64.91
2023-03-26T09:55:23.702Z,64.98
2023-03-26T09:57:50.057Z,65.49
2023-03-26T10:00:16.407Z,65.01
2023-03-26T10:02:45.994Z,64.44
2023-03-26T10:05:13.790Z,64.51
2023-03-26T10:07:40.048Z,64.46
2023-03-26T10:10:06.344Z,64.45
2023-03-26T10:12:32.641Z,64.21
2023-03-26T10:14:58.997Z,64.50
2023-03-26T10:17:25.280Z,64.08
2023-03-26T10:19:51.548Z,63.39
2023-03-26T10:22:17.850Z,63.47
2023-03-26T10:24:44.123Z,64.17
2023-03-26T10:27:10.973Z,64.35
2023-03-26T10:29:37.385Z,64.80
2023-03-26T10:32:03.680Z,64.89
2023-03-26T10:34:29.961Z,65.43
2023-03-26T10:36:56.232Z,64.44
2023-03-26T10:39:37.184Z,64.59
2023-03-26T10:42:05.679Z,64.44
2023-03-26T10:44:31.988Z,65.14
2023-03-26T10:46:58.306Z,63.69
2023-03-26T10:49:24.627Z,63.12
2023-03-26T10:51:51.066Z,63.14
2023-03-26T10:54:17.361Z,62.40
2023-03-26T10:56:43.672Z,61.91
2023-03-26T10:59:09.983Z,60.43
2023-03-26T11:01:36.330Z,60.05
2023-03-26T11:04:02.624Z,61.03
2023-03-26T11:06:28.935Z,60.06
2023-03-26T11:08:55.407Z,61.26
2023-03-26T11:11:21.726Z,60.68
2023-03-26T11:13:47.977Z,61.62
2023-03-26T11:16:14.314Z,62.06
2023-03-26T11:18:40.658Z,61.92
2023-03-26T11:21:19.341Z,62.47
2023-03-26T11:23:46.708Z,61.96
2023-03-26T11:26:12.991Z,61.95
2023-03-26T11:28:39.235Z,61.93
2023-03-26T11:31:05.585Z,60.37
2023-03-26T11:34:37.051Z,61.12
2023-03-26T11:36:18.283Z,59.73
2023-03-26T11:38:44.694Z,59.23
2023-03-26T11:41:10.962Z,58.61
2023-03-26T11:43:37.278Z,59.42
2023-03-26T11:46:03.659Z,60.08
2023-03-26T11:48:29.958Z,58.13
2023-03-26T11:50:56.418Z,59.81
2023-03-26T11:53:22.852Z,60.84
2023-03-26T11:55:49.124Z,61.09
2023-03-26T11:58:15.402Z,60.38
2023-03-26T12:00:41.693Z,60.38
2023-03-26T12:03:08.045Z,60.31
2023-03-26T12:05:34.396Z,60.68
2023-03-26T12:08:00.665Z,60.46
2023-03-26T12:10:26.939Z,60.00
2023-03-26T12:12:53.206Z,60.11
2023-03-26T12:15:19.464Z,60.72
2023-03-26T12:17:45.733Z,61.82
2023-03-26T12:20:12.006Z,62.85
2023-03-26T12:22:38.273Z,63.52
2023-03-26T12:25:04.540Z,60.96
2023-03-26T12:27:30.819Z,60.50
2023-03-26T12:29:57.084Z,60.04
2023-03-26T12:32:29.614Z,59.38
2023-03-26T12:35:01.930Z,59.15
2023-03-26T12:37:28.208Z,59.43
2023-03-26T12:40:06.896Z,59.19
2023-03-26T12:44:47.787Z,58.81
2023-03-26T12:45:23.445Z,59.66
2023-03-26T12:48:00.564Z,61.68
2023-03-26T12:50:34.127Z,62.97
2023-03-26T12:53:02.059Z,61.96
2023-03-26T12:55:28.374Z,61.90
2023-03-26T12:57:54.665Z,63.29
2023-03-26T13:00:20.964Z,64.33
2023-03-26T13:02:47.322Z,64.36
2023-03-26T13:05:13.645Z,62.83
2023-03-26T13:07:39.955Z,62.72
2023-03-26T13:10:06.222Z,63.72
2023-03-26T13:12:32.466Z,62.52
2023-03-26T13:14:58.785Z,63.23
2023-03-26T13:17:25.045Z,63.65
2023-03-26T13:19:51.304Z,63.24
2023-03-26T13:22:17.552Z,62.78
2023-03-26T13:24:43.831Z,62.01
2023-03-26T13:27:10.120Z,64.05
2023-03-26T13:29:36.404Z,62.59
2023-03-26T13:32:02.669Z,59.94
2023-03-26T13:34:28.950Z,57.50
2023-03-26T13:36:55.249Z,59.46
2023-03-26T13:39:21.624Z,59.63
2023-03-26T13:41:47.903Z,60.25
2023-03-26T13:44:14.154Z,59.50
2023-03-26T13:46:40.499Z,61.33
2023-03-26T13:49:06.853Z,61.06
2023-03-26T13:51:33.096Z,60.25
2023-03-26T13:53:59.397Z,61.40
2023-03-26T13:56:25.684Z,60.70
2023-03-26T13:58:51.935Z,61.19
2023-03-26T14:01:18.450Z,62.38
2023-03-26T14:03:44.752Z,62.20
2023-03-26T14:06:11.049Z,62.48
2023-03-26T14:08:37.310Z,62.34
2023-03-26T14:11:03.573Z,61.88
2023-03-26T14:13:29.830Z,62.10
2023-03-26T14:15:56.230Z,61.67
2023-03-26T14:18:22.573Z,61.14
2023-03-26T14:20:48.866Z,61.27
2023-03-26T14:23:15.127Z,59.65
2023-03-26T14:25:41.385Z,55.84
2023-03-26T14:28:07.715Z,57.69
2023-03-26T14:30:33.960Z,56.63
2023-03-26T14:33:00.289Z,57.06
2023-03-26T14:35:26.603Z,56.64
2023-03-26T14:37:52.921Z,56.56
2023-03-26T14:40:19.248Z,54.56
2023-03-26T14:42:45.502Z,54.45
2023-03-26T14:45:11.767Z,54.79
2023-03-26T14:47:38.184Z,54.49
2023-03-26T14:50:04.557Z,55.66
2023-03-26T14:52:30.876Z,55.27
2023-03-26T14:54:57.200Z,55.71
2023-03-26T14:57:23.488Z,55.00
2023-03-26T14:59:49.771Z,53.81
2023-03-26T15:02:16.073Z,52.83
2023-03-26T15:04:42.456Z,52.46
2023-03-26T15:07:08.733Z,51.69
2023-03-26T15:09:35.008Z,51.27
2023-03-26T15:12:12.110Z,51.65
2023-03-26T15:14:39.585Z,49.73
2023-03-26T15:17:05.889Z,50.17
2023-03-26T15:19:32.148Z,49.71
2023-03-26T15:21:58.451Z,51.05
2023-03-26T15:24:24.753Z,50.90
2023-03-26T15:26:51.097Z,50.24
2023-03-26T15:29:17.358Z,50.18
2023-03-26T15:31:43.664Z,51.28
2023-03-26T15:34:09.966Z,50.03
2023-03-26T15:36:36.288Z,50.42
2023-03-26T15:39:02.545Z,50.29
2023-03-26T15:41:28.815Z,50.92
2023-03-26T15:44:22.850Z,50.67
2023-03-26T15:46:41.732Z,49.91
2023-03-26T15:49:08.266Z,49.11
2023-03-26T15:51:46.910Z,48.35
2023-03-26T15:54:13.996Z,47.34
2023-03-26T15:56:40.335Z,48.46
2023-03-26T15:59:06.806Z,47.79
2023-03-26T16:01:33.390Z,47.92
2023-03-26T16:03:59.810Z,46.69
2023-03-26T16:06:26.531Z,46.03
2023-03-26T16:08:54.338Z,45.90
2023-03-26T16:11:20.907Z,45.07
2023-03-26T16:13:47.356Z,44.87
2023-03-26T16:16:14.344Z,44.68
2023-03-26T16:18:40.903Z,43.48
2023-03-26T16:21:07.320Z,43.81
2023-03-26T16:23:34.055Z,44.96
2023-03-26T16:26:14.421Z,44.57
2023-03-26T16:28:41.066Z,44.76
2023-03-26T16:31:10.671Z,44.39
2023-03-26T16:33:55.807Z,45.09
2023-03-26T16:36:22.088Z,45.59
2023-03-26T16:38:48.511Z,44.82
2023-03-26T16:41:15.103Z,45.13
2023-03-26T16:43:41.851Z,44.99
2023-03-26T16:46:08.331Z,45.90
2023-03-26T16:48:34.863Z,45.52
2023-03-26T16:51:01.374Z,44.67
2023-03-26T16:53:28.104Z,45.08
2023-03-26T16:55:56.164Z,45.77
2023-03-26T16:58:22.712Z,46.07
2023-03-26T17:00:51.699Z,46.74
2023-03-26T17:03:18.420Z,46.70
2023-03-26T17:05:44.967Z,47.42
2023-03-26T17:08:11.366Z,47.48
2023-03-26T17:10:37.838Z,48.34
2023-03-26T17:13:04.238Z,48.37
2023-03-26T17:15:30.645Z,48.11
2023-03-26T17:17:57.174Z,47.97
2023-03-26T17:20:23.787Z,47.83
2023-03-26T17:22:50.385Z,47.11
2023-03-26T17:25:16.880Z,47.12
2023-03-26T17:27:43.278Z,46.62
2023-03-26T17:30:09.810Z,47.20
2023-03-26T17:32:36.358Z,47.61
2023-03-26T17:35:08.110Z,47.35
2023-03-26T17:37:34.553Z,47.94
2023-03-26T17:40:00.855Z,47.29
2023-03-26T17:42:27.334Z,48.50
2023-03-26T17:44:53.862Z,48.19
2023-03-26T17:47:20.247Z,48.37
2023-03-26T17:49:46.585Z,48.34
2023-03-26T17:52:12.996Z,48.26
2023-03-26T17:54:40.960Z,48.68
2023-03-26T17:57:07.294Z,48.25
2023-03-26T17:59:33.941Z,47.97
2023-03-26T18:02:00.508Z,48.32
2023-03-26T18:04:26.928Z,47.95
2023-03-26T18:06:53.446Z,47.58
2023-03-26T18:09:19.908Z,47.37
2023-03-26T18:11:49.066Z,48.08
2023-03-26T18:14:15.711Z,47.78
2023-03-26T18:16:42.445Z,50.01
2023-03-26T18:19:08.864Z,53.25
2023-03-26T18:21:37.976Z,55.68
2023-03-26T18:24:04.441Z,56.71
2023-03-26T18:26:30.899Z,58.82
2023-03-26T18:28:57.266Z,59.39
2023-03-26T18:31:23.582Z,59.21
2023-03-26T18:33:49.887Z,59.04
2023-03-26T18:36:16.181Z,58.29
2023-03-26T18:38:43.049Z,57.16
2023-03-26T18:41:09.391Z,57.18
2023-03-26T18:43:44.252Z,56.76
2023-03-26T18:46:10.958Z,57.12
2023-03-26T18:48:37.358Z,56.71
2023-03-26T18:51:05.040Z,56.19
2023-03-26T18:53:32.436Z,56.11
2023-03-26T18:55:58.945Z,56.30
2023-03-26T18:58:25.921Z,56.83
2023-03-26T19:00:52.667Z,56.24
2023-03-26T19:03:19.415Z,56.64
2023-03-26T19:05:46.081Z,56.61
2023-03-26T19:08:12.644Z,56.89
2023-03-26T19:10:38.950Z,56.51
2023-03-26T19:13:05.232Z,56.38
2023-03-26T19:15:31.517Z,56.39
2023-03-26T19:17:57.925Z,55.95
2023-03-26T19:20:24.273Z,56.79
2023-03-26T19:22:50.627Z,56.49
2023-03-26T19:25:16.951Z,56.83
2023-03-26T19:27:43.245Z,56.81
2023-03-26T19:30:09.540Z,56.15
2023-03-26T19:32:36.006Z,56.20
2023-03-26T19:35:02.385Z,56.94
2023-03-26T19:37:28.728Z,57.45
2023-03-26T19:39:55.017Z,58.15
2023-03-26T19:42:21.293Z,58.29
2023-03-26T19:44:47.932Z,58.49
2023-03-26T19:47:14.372Z,58.53
2023-03-26T19:49:40.869Z,59.14
2023-03-26T19:52:07.339Z,59.73
2023-03-26T19:54:33.788Z,59.16
2023-03-26T19:57:00.477Z,58.88
2023-03-26T19:59:27.071Z,59.04
2023-03-26T20:01:53.719Z,58.78
2023-03-26T20:04:20.268Z,58.61
2023-03-26T20:06:46.748Z,59.02
2023-03-26T20:09:13.632Z,58.73
2023-03-26T20:11:40.350Z,58.88
2023-03-26T20:14:06.990Z,58.19
2023-03-26T20:16:33.615Z,58.49
2023-03-26T20:19:00.346Z,58.51
2023-03-26T20:21:26.783Z,58.85
2023-03-26T20:23:53.378Z,59.33
2023-03-26T20:26:22.834Z,59.36
2023-03-26T20:28:53.232Z,59.80
2023-03-26T20:31:20.042Z,59.74
2023-03-26T20:33:46.562Z,59.68
2023-03-26T20:36:13.009Z,59.03
2023-03-26T20:38:40.111Z,58.97
2023-03-26T20:41:06.480Z,58.87
2023-03-26T20:43:32.777Z,59.26
2023-03-26T20:45:59.076Z,59.20
2023-03-26T20:48:25.393Z,59.16
2023-03-26T20:50:51.667Z,59.50
2023-03-26T20:53:17.964Z,59.38
2023-03-26T20:55:44.215Z,59.36
2023-03-26T20:58:10.508Z,58.51
2023-03-26T21:00:36.787Z,58.85
2023-03-26T21:03:04.205Z,59.02
2023-03-26T21:05:30.536Z,59.29
2023-03-26T21:07:56.824Z,59.95
2023-03-26T21:10:23.106Z,59.64
2023-03-26T21:12:49.366Z,59.96
2023-03-26T21:15:22.959Z,58.92
2023-03-26T21:17:49.952Z,59.19
2023-03-26T21:20:16.221Z,58.88
2023-03-26T21:22:42.486Z,59.45
2023-03-26T21:25:08.740Z,59.23
2023-03-26T21:27:35.000Z,59.60
2023-03-26T21:30:01.260Z,60.04
2023-03-26T21:32:27.585Z,60.21
2023-03-26T21:37:23.293Z,60.86
2023-03-26T21:39:49.573Z,60.18
2023-03-26T21:42:15.858Z,59.94
2023-03-26T21:44:42.137Z,60.09
2023-03-26T21:47:09.752Z,60.18
2023-03-26T21:49:36.307Z,60.26
2023-03-26T21:52:02.568Z,60.08
2023-03-26T21:54:28.859Z,59.91
2023-03-26T21:56:55.149Z,59.96
2023-03-26T21:59:21.431Z,59.73
2023-03-26T22:01:47.803Z,59.35
2023-03-26T22:04:14.094Z,59.60
2023-03-26T22:06:40.381Z,60.00
2023-03-26T22:09:06.641Z,60.76
2023-03-26T22:11:32.909Z,61.06
2023-03-26T22:13:59.188Z,60.70
2023-03-26T22:16:25.523Z,61.42
2023-03-26T22:18:51.820Z,61.06
2023-03-26T22:21:18.086Z,61.21
2023-03-26T22:23:44.326Z,61.44
2023-03-26T22:26:10.597Z,60.68
2023-03-26T22:28:36.903Z,60.92
2023-03-26T22:31:03.200Z,60.46
2023-03-26T22:33:29.469Z,61.01
2023-03-26T22:35:55.742Z,60.31
2023-03-26T22:38:22.186Z,60.71
2023-03-26T22:40:48.456Z,60.89
2023-03-26T22:43:14.747Z,60.62
2023-03-26T22:45:41.073Z,61.23
2023-03-26T22:48:07.473Z,61.60
2023-03-26T22:50:33.765Z,61.79
2023-03-26T22:53:00.105Z,61.92
2023-03-26T22:55:28.332Z,61.73
2023-03-26T22:57:55.470Z,61.24
2023-03-26T23:00:21.722Z,61.06
2023-03-26T23:02:48.011Z,60.69
2023-03-26T23:05:14.321Z,61.21
2023-03-26T23:07:40.574Z,60.46
2023-03-26T23:10:06.847Z,61.45
2023-03-26T23:12:33.111Z,61.29
2023-03-26T23:14:59.350Z,61.35
2023-03-26T23:17:25.708Z,61.22
2023-03-26T23:19:51.997Z,61.57
2023-03-26T23:22:18.250Z,61.29
2023-03-26T23:24:44.518Z,61.00
2023-03-26T23:27:10.808Z,61.49
2023-03-26T23:29:37.081Z,61.50
2023-03-26T23:32:03.352Z,61.70
2023-03-26T23:34:51.851Z,61.71
2023-03-26T23:37:18.817Z,61.52
2023-03-26T23:39:45.100Z,61.51
2023-03-26T23:42:11.350Z,61.80
2023-03-26T23:44:37.606Z,61.67
2023-03-26T23:47:03.861Z,62.23
2023-03-26T23:49:30.148Z,62.02
2023-03-26T23:51:56.416Z,62.25
2023-03-26T23:54:22.686Z,62.00
2023-03-26T23:56:49.034Z,61.82
2023-03-26T23:59:15.341Z,62.46
